createdAt,value
2023-01-20T00:02:24.638Z,97235.34
2023-01-20T00:05:10.104Z,97400.69
2023-01-20T00:07:55.425Z,97235.78
2023-01-20T00:10:40.772Z,97369.13
2023-01-20T00:13:26.143Z,97434.66
2023-01-20T00:16:12.170Z,97223.28
2023-01-20T00:18:57.713Z,97436.59
2023-01-20T00:21:43.691Z,97379.16
2023-01-20T00:24:29.148Z,97217.91
2023-01-20T00:27:16.025Z,97237.47
2023-01-20T00:30:01.509Z,97447.44
2023-01-20T00:32:46.919Z,97381.97
2023-01-20T00:35:32.242Z,97467.44
2023-01-20T00:38:18.272Z,97431.66
2023-01-20T00:41:04.133Z,97270.53
2023-01-20T00:43:50.116Z,97430.66
2023-01-20T00:46:35.727Z,97253.94
2023-01-20T00:49:21.016Z,97411.06
2023-01-20T00:52:06.456Z,97235.72
2023-01-20T00:54:51.915Z,97459.50
2023-01-20T00:57:37.447Z,97476.09
2023-01-20T01:00:22.886Z,97207.88
2023-01-20T01:03:08.507Z,97241.56
2023-01-20T01:05:54.059Z,97244.50
2023-01-20T01:08:39.645Z,97403.09
2023-01-20T01:11:25.296Z,97380.97
2023-01-20T01:14:10.540Z,97397.03
2023-01-20T01:16:57.407Z,97393.16
2023-01-20T01:19:43.264Z,97267.91
2023-01-20T01:22:28.627Z,97434.94
2023-01-20T01:25:14.449Z,97362.31
2023-01-20T01:28:00.300Z,97411.06
2023-01-20T01:30:45.605Z,97392.19
2023-01-20T01:33:30.910Z,97379.84
2023-01-20T01:36:17.688Z,97468.75
2023-01-20T01:39:03.487Z,97422.53
2023-01-20T01:41:48.985Z,97450.91
2023-01-20T01:44:37.139Z,97374.03
2023-01-20T01:47:22.787Z,97294.69
2023-01-20T01:50:11.353Z,97277.25
2023-01-20T01:52:57.185Z,97457.78
2023-01-20T01:55:53.803Z,97475.28
2023-01-20T01:58:43.504Z,97464.38
2023-01-20T02:01:30.784Z,97490.34
2023-01-20T02:04:21.948Z,97514.22
2023-01-20T02:07:20.712Z,97288.91
2023-01-20T02:10:06.914Z,97354.69
2023-01-20T02:12:53.309Z,97511.75
2023-01-20T02:15:48.328Z,97472.63
2023-01-20T02:18:51.686Z,97538.25
2023-01-20T02:22:01.991Z,97528.31
2023-01-20T02:24:53.667Z,97543.28
2023-01-20T02:27:57.503Z,97369.25
2023-01-20T02:31:13.163Z,97360.47
2023-01-20T02:34:04.614Z,97523.59
2023-01-20T02:36:50.327Z,97548.19
2023-01-20T02:40:02.157Z,97524.34
2023-01-20T02:43:21.017Z,97542.94
2023-01-20T02:46:17.729Z,97358.50
2023-01-20T02:49:09.507Z,97582.97
2023-01-20T02:52:01.448Z,97431.25
2023-01-20T02:54:52.493Z,97538.16
2023-01-20T02:57:44.332Z,97559.50
2023-01-20T03:00:35.031Z,97329.41
2023-01-20T03:03:27.753Z,97431.75
2023-01-20T03:06:26.824Z,97371.94
2023-01-20T03:09:18.286Z,97340.75
2023-01-20T03:12:16.801Z,97346.22
2023-01-20T03:15:02.595Z,97504.31
2023-01-20T03:17:48.300Z,97543.97
2023-01-20T03:20:33.729Z,97546.78
2023-01-20T03:23:19.123Z,97504.41
2023-01-20T03:26:09.057Z,97377.63
2023-01-20T03:28:54.755Z,97505.28
2023-01-20T03:31:44.976Z,97531.47
2023-01-20T03:34:33.757Z,97490.94
2023-01-20T03:37:19.822Z,97487.03
2023-01-20T03:40:06.168Z,97525.13
2023-01-20T03:43:10.965Z,97321.91
2023-01-20T03:46:08.905Z,97445.06
2023-01-20T03:49:08.090Z,97472.16
2023-01-20T03:51:59.292Z,97599.47
2023-01-20T03:54:54.745Z,97553.06
2023-01-20T03:57:48.422Z,97586.94
2023-01-20T04:00:37.696Z,97625.06
2023-01-20T04:03:29.905Z,97544.09
2023-01-20T04:06:17.975Z,97571.81
2023-01-20T04:09:13.158Z,97450.25
2023-01-20T04:11:59.460Z,97605.84
2023-01-20T04:14:45.134Z,97565.75
2023-01-20T04:17:30.810Z,97622.59
2023-01-20T04:20:16.919Z,97625.56
2023-01-20T04:23:02.879Z,97593.09
2023-01-20T04:25:48.496Z,97569.94
2023-01-20T04:28:34.005Z,97576.53
2023-01-20T04:31:29.999Z,97614.38
2023-01-20T04:34:16.609Z,97573.69
2023-01-20T04:37:01.906Z,97604.22
2023-01-20T04:39:47.237Z,97607.19
2023-01-20T04:42:32.521Z,97405.31
2023-01-20T04:45:17.942Z,97554.19
2023-01-20T04:48:07.492Z,97547.09
2023-01-20T04:50:53.047Z,97591.53
2023-01-20T04:53:38.397Z,97549.97
2023-01-20T04:56:24.366Z,97578.00
2023-01-20T04:59:09.971Z,97581.13
2023-01-20T05:01:55.564Z,97607.81
2023-01-20T05:04:40.818Z,97367.81
2023-01-20T05:07:26.069Z,97544.03
2023-01-20T05:10:13.169Z,97573.44
2023-01-20T05:12:59.253Z,97593.59
2023-01-20T05:15:44.906Z,97426.50
2023-01-20T05:18:30.637Z,97597.59
2023-01-20T05:21:16.104Z,97393.16
2023-01-20T05:24:01.553Z,97478.16
2023-01-20T05:26:47.546Z,97570.44
2023-01-20T05:29:33.221Z,97596.38
2023-01-20T05:32:18.624Z,97463.81
2023-01-20T05:35:04.807Z,97431.22
2023-01-20T05:37:54.546Z,97584.81
2023-01-20T05:40:40.079Z,97588.34
2023-01-20T05:43:25.486Z,97541.78
2023-01-20T05:46:11.029Z,97649.13
2023-01-20T05:48:56.251Z,97651.09
2023-01-20T05:51:41.659Z,97460.34
2023-01-20T05:54:27.066Z,97668.75
2023-01-20T05:57:14.471Z,97513.72
2023-01-20T06:00:00.007Z,97679.53
2023-01-20T06:02:45.532Z,97657.69
2023-01-20T06:05:32.109Z,97697.09
2023-01-20T06:08:17.628Z,97481.00
2023-01-20T06:11:03.050Z,97468.84
2023-01-20T06:13:49.866Z,97657.69
2023-01-20T06:16:36.183Z,97686.91
2023-01-20T06:19:21.896Z,97727.06
2023-01-20T06:22:12.569Z,97472.41
2023-01-20T06:24:58.369Z,97513.84
2023-01-20T06:27:44.711Z,97707.38
2023-01-20T06:30:30.827Z,97561.41
2023-01-20T06:33:16.244Z,97652.34
2023-01-20T06:36:02.605Z,97720.41
2023-01-20T06:38:50.707Z,97688.03
2023-01-20T06:41:36.079Z,97523.47
2023-01-20T06:44:21.517Z,97657.38
2023-01-20T06:47:07.056Z,97706.13
2023-01-20T06:49:52.432Z,97631.41
2023-01-20T06:52:37.814Z,97702.91
2023-01-20T06:55:23.184Z,97670.59
2023-01-20T06:58:08.487Z,97740.50
2023-01-20T07:00:56.207Z,97549.59
2023-01-20T07:03:43.621Z,97726.91
2023-01-20T07:06:35.725Z,97553.13
2023-01-20T07:09:21.092Z,97742.41
2023-01-20T07:12:06.748Z,97756.47
2023-01-20T07:14:52.579Z,97609.16
2023-01-20T07:17:38.060Z,97679.44
2023-01-20T07:20:23.454Z,97762.19
2023-01-20T07:23:08.787Z,97605.41
2023-01-20T07:26:02.043Z,97763.41
2023-01-20T07:28:48.541Z,97566.56
2023-01-20T07:31:34.639Z,97577.50
2023-01-20T07:34:19.962Z,97745.19
2023-01-20T07:37:05.406Z,97573.06
2023-01-20T07:39:50.742Z,97710.34
2023-01-20T07:42:39.418Z,97792.78
2023-01-20T07:45:25.106Z,97551.28
2023-01-20T07:48:10.522Z,97770.16
2023-01-20T07:51:02.785Z,97581.50
2023-01-20T07:53:51.840Z,97767.50
2023-01-20T07:56:37.430Z,97750.91
2023-01-20T07:59:22.742Z,97748.53
2023-01-20T08:02:10.178Z,97738.91
2023-01-20T08:04:55.889Z,97765.78
2023-01-20T08:07:41.142Z,97769.47
2023-01-20T08:10:28.068Z,97817.28
2023-01-20T08:13:13.687Z,97739.69
2023-01-20T08:16:04.737Z,97781.03
2023-01-20T08:18:53.794Z,97792.09
2023-01-20T08:21:39.515Z,97818.81
2023-01-20T08:24:25.599Z,97784.94
2023-01-20T08:27:11.035Z,97738.34
2023-01-20T08:29:56.524Z,97750.50
2023-01-20T08:32:41.932Z,97775.31
2023-01-20T08:35:27.828Z,97699.91
2023-01-20T08:38:13.942Z,97771.75
2023-01-20T08:40:59.385Z,97683.31
2023-01-20T08:43:44.846Z,97551.72
2023-01-20T08:46:31.071Z,97760.59
2023-01-20T08:49:17.301Z,97765.44
2023-01-20T08:52:03.135Z,97740.03
2023-01-20T08:54:53.577Z,97760.81
2023-01-20T08:57:39.197Z,97762.50
2023-01-20T09:00:24.850Z,97774.91
2023-01-20T09:03:12.316Z,97707.69
2023-01-20T09:06:01.816Z,97568.69
2023-01-20T09:08:49.433Z,97761.66
2023-01-20T09:11:35.249Z,97760.19
2023-01-20T09:14:22.811Z,97794.22
2023-01-20T09:17:08.533Z,97767.00
2023-01-20T09:19:54.647Z,97773.28
2023-01-20T09:22:40.581Z,97762.34
2023-01-20T09:25:26.305Z,97749.66
2023-01-20T09:28:12.271Z,97728.00
2023-01-20T09:30:59.053Z,97771.97
2023-01-20T09:33:45.076Z,97766.75
2023-01-20T09:36:30.422Z,97607.31
2023-01-20T09:39:35.632Z,97780.06
2023-01-20T09:43:09.864Z,97787.41
2023-01-20T09:46:05.333Z,97779.41
2023-01-20T09:49:29.277Z,97772.81
2023-01-20T09:52:37.229Z,97767.25
2023-01-20T09:55:41.685Z,97758.84
2023-01-20T09:58:40.043Z,97767.25
2023-01-20T10:01:40.569Z,97562.81
2023-01-20T10:04:37.079Z,97552.09
2023-01-20T10:07:33.790Z,97742.03
2023-01-20T10:10:38.005Z,97552.22
2023-01-20T10:13:34.248Z,97754.19
2023-01-20T10:16:45.592Z,97642.09
2023-01-20T10:20:09.715Z,97771.22
2023-01-20T10:23:03.610Z,97582.63
2023-01-20T10:25:59.696Z,97747.72
2023-01-20T10:28:53.219Z,97744.47
2023-01-20T10:31:47.031Z,97568.41
2023-01-20T10:34:44.468Z,97567.97
2023-01-20T10:37:32.121Z,97605.50
2023-01-20T10:40:36.618Z,97729.66
2023-01-20T10:43:22.039Z,97716.63
2023-01-20T10:46:16.124Z,97688.53
2023-01-20T10:49:07.435Z,97752.94
2023-01-20T10:52:08.614Z,97710.25
2023-01-20T10:55:06.490Z,97657.03
2023-01-20T10:58:03.359Z,97490.88
2023-01-20T11:00:50.067Z,97525.75
2023-01-20T11:03:40.937Z,97700.03
2023-01-20T11:06:27.264Z,97657.84
2023-01-20T11:09:23.451Z,97535.22
2023-01-20T11:12:17.811Z,97708.34
2023-01-20T11:15:20.742Z,97697.66
2023-01-20T11:18:15.392Z,97500.00
2023-01-20T11:21:06.369Z,97693.34
2023-01-20T11:23:55.851Z,97710.56
2023-01-20T11:26:41.323Z,97641.22
2023-01-20T11:29:30.332Z,97682.66
2023-01-20T11:32:28.635Z,97641.53
2023-01-20T11:35:26.235Z,97696.53
2023-01-20T11:38:43.440Z,97636.53
2023-01-20T11:41:31.217Z,97702.41
2023-01-20T11:44:20.479Z,97499.44
2023-01-20T11:47:36.315Z,97690.31
2023-01-20T11:50:30.047Z,97617.25
2023-01-20T11:53:23.441Z,97696.88
2023-01-20T11:56:22.370Z,97686.25
2023-01-20T11:59:28.330Z,97683.34
2023-01-20T12:02:14.002Z,97709.22
2023-01-20T12:05:10.166Z,97684.78
2023-01-20T12:07:56.584Z,97562.53
2023-01-20T12:10:43.214Z,97671.50
2023-01-20T12:13:59.187Z,97489.16
2023-01-20T12:16:53.385Z,97648.09
2023-01-20T12:20:24.826Z,97712.69
2023-01-20T12:23:33.237Z,97612.19
2023-01-20T12:26:21.704Z,97673.44
2023-01-20T12:29:20.528Z,97713.19
2023-01-20T12:32:05.866Z,97619.59
2023-01-20T12:34:51.459Z,97634.13
2023-01-20T12:37:57.643Z,97674.91
2023-01-20T12:40:53.190Z,97512.63
2023-01-20T12:44:11.330Z,97688.72
2023-01-20T12:47:18.641Z,97630.78
2023-01-20T12:50:25.595Z,97708.13
2023-01-20T12:53:49.640Z,97695.00
2023-01-20T12:56:48.906Z,97526.50
2023-01-20T13:00:25.607Z,97714.25
2023-01-20T13:03:39.238Z,97697.44
2023-01-20T13:06:37.105Z,97694.72
2023-01-20T13:09:29.784Z,97704.59
2023-01-20T13:12:26.078Z,97488.09
2023-01-20T13:15:17.632Z,97721.41
2023-01-20T13:18:08.141Z,97490.19
2023-01-20T13:20:55.513Z,97647.91
2023-01-20T13:23:40.988Z,97664.75
2023-01-20T13:26:27.691Z,97619.59
2023-01-20T13:29:50.777Z,97693.91
2023-01-20T13:32:43.152Z,97722.50
2023-01-20T13:35:32.415Z,97680.25
2023-01-20T13:38:24.314Z,97655.25
2023-01-20T13:41:10.784Z,97511.00
2023-01-20T13:43:56.490Z,97657.47
2023-01-20T13:46:45.104Z,97625.31
2023-01-20T13:49:51.262Z,97605.41
2023-01-20T13:52:52.412Z,97714.59
2023-01-20T13:55:40.881Z,97717.53
2023-01-20T13:58:33.548Z,97696.59
2023-01-20T14:01:19.641Z,97643.53
2023-01-20T14:04:07.566Z,97663.03
2023-01-20T14:06:52.876Z,97672.78
2023-01-20T14:09:39.918Z,97457.47
2023-01-20T14:12:25.746Z,97467.09
2023-01-20T14:15:26.505Z,97641.28
2023-01-20T14:18:15.720Z,97462.66
2023-01-20T14:21:16.649Z,97658.63
2023-01-20T14:24:02.291Z,97678.22
2023-01-20T14:26:47.815Z,97664.53
2023-01-20T14:29:33.191Z,97468.56
2023-01-20T14:32:35.323Z,97692.94
2023-01-20T14:35:31.828Z,97495.16
2023-01-20T14:38:18.459Z,97596.47
2023-01-20T14:41:04.310Z,97613.72
2023-01-20T14:43:49.891Z,97619.53
2023-01-20T14:46:39.555Z,97636.59
2023-01-20T14:49:46.556Z,97622.09
2023-01-20T14:52:32.534Z,97448.88
2023-01-20T14:55:36.666Z,97657.28
2023-01-20T14:58:22.798Z,97556.00
2023-01-20T15:01:20.890Z,97489.16
2023-01-20T15:04:06.787Z,97616.50
2023-01-20T15:06:58.227Z,97521.75
2023-01-20T15:09:53.183Z,97654.59
2023-01-20T15:12:44.789Z,97688.47
2023-01-20T15:15:32.656Z,97559.81
2023-01-20T15:18:20.525Z,97700.47
2023-01-20T15:21:35.399Z,97650.88
2023-01-20T15:24:31.973Z,97445.38
2023-01-20T15:27:28.909Z,97625.91
2023-01-20T15:30:20.851Z,97676.31
2023-01-20T15:33:08.911Z,97596.00
2023-01-20T15:35:57.176Z,97643.09
2023-01-20T15:38:42.897Z,97639.34
2023-01-20T15:41:28.573Z,97599.06
2023-01-20T15:44:15.151Z,97452.69
2023-01-20T15:47:00.823Z,97547.47
2023-01-20T15:49:46.633Z,97568.47
2023-01-20T15:52:32.477Z,97409.28
2023-01-20T15:55:19.196Z,97452.25
2023-01-20T15:58:20.822Z,97636.59
2023-01-20T16:01:06.088Z,97591.44
2023-01-20T16:03:56.337Z,97599.94
2023-01-20T16:06:42.706Z,97623.88
2023-01-20T16:09:30.614Z,97419.56
2023-01-20T16:12:17.770Z,97537.97
2023-01-20T16:15:04.197Z,97627.13
2023-01-20T16:17:51.268Z,97574.59
2023-01-20T16:20:36.760Z,97597.50
2023-01-20T16:23:22.414Z,97508.66
2023-01-20T16:26:19.731Z,97491.91
2023-01-20T16:29:05.573Z,97533.41
2023-01-20T16:31:50.855Z,97423.16
2023-01-20T16:34:36.889Z,97436.03
2023-01-20T16:37:22.934Z,97603.06
2023-01-20T16:40:20.177Z,97594.25
2023-01-20T16:43:06.699Z,97577.47
2023-01-20T16:45:56.101Z,97553.84
2023-01-20T16:48:41.937Z,97613.25
2023-01-20T16:51:29.089Z,97587.09
2023-01-20T16:54:14.881Z,97590.91
2023-01-20T16:57:00.687Z,97507.66
2023-01-20T16:59:47.298Z,97565.94
2023-01-20T17:02:34.260Z,97371.59
2023-01-20T17:05:22.719Z,97478.47
2023-01-20T17:08:09.439Z,97353.34
2023-01-20T17:10:55.085Z,97363.19
2023-01-20T17:13:40.727Z,97487.91
2023-01-20T17:16:26.496Z,97564.66
2023-01-20T17:19:13.141Z,97522.31
2023-01-20T17:21:59.130Z,97478.91
2023-01-20T17:24:45.213Z,97494.81
2023-01-20T17:27:30.618Z,97516.72
2023-01-20T17:30:16.894Z,97335.66
2023-01-20T17:33:02.756Z,97343.28
2023-01-20T17:36:02.811Z,97410.53
2023-01-20T17:38:48.767Z,97450.75
2023-01-20T17:41:34.700Z,97505.88
2023-01-20T17:44:20.644Z,97517.59
2023-01-20T17:47:06.626Z,97533.34
2023-01-20T17:49:52.260Z,97380.78
2023-01-20T17:52:37.645Z,97410.94
2023-01-20T17:55:23.079Z,97421.22
2023-01-20T17:58:10.754Z,97476.28
2023-01-20T18:00:56.459Z,97461.00
2023-01-20T18:03:43.209Z,97451.97
2023-01-20T18:06:29.104Z,97330.28
2023-01-20T18:09:15.991Z,97512.44
2023-01-20T18:12:06.124Z,97512.97
2023-01-20T18:14:54.445Z,97451.03
2023-01-20T18:17:43.394Z,97456.25
2023-01-20T18:20:29.285Z,97464.97
2023-01-20T18:23:14.829Z,97435.38
2023-01-20T18:26:00.285Z,97432.47
2023-01-20T18:28:48.842Z,97438.16
2023-01-20T18:31:35.297Z,97398.31
2023-01-20T18:34:22.078Z,97285.88
2023-01-20T18:37:07.672Z,97438.97
2023-01-20T18:39:53.216Z,97446.97
2023-01-20T18:42:38.849Z,97488.19
2023-01-20T18:45:26.934Z,97419.34
2023-01-20T18:48:12.475Z,97430.75
2023-01-20T18:51:02.101Z,97305.00
2023-01-20T18:53:54.353Z,97370.25
2023-01-20T18:56:40.210Z,97469.94
2023-01-20T18:59:26.436Z,97356.00
2023-01-20T19:02:13.460Z,97421.50
2023-01-20T19:05:00.193Z,97429.72
2023-01-20T19:07:51.412Z,97436.78
2023-01-20T19:10:36.839Z,97267.19
2023-01-20T19:13:22.239Z,97233.69
2023-01-20T19:16:10.686Z,97239.75
2023-01-20T19:18:58.109Z,97443.03
2023-01-20T19:21:43.876Z,97232.44
2023-01-20T19:24:29.473Z,97384.66
2023-01-20T19:27:16.078Z,97438.25
2023-01-20T19:30:02.094Z,97217.41
2023-01-20T19:32:47.439Z,97458.94
2023-01-20T19:35:34.055Z,97264.06
2023-01-20T19:38:19.167Z,97422.09
2023-01-20T19:41:15.787Z,97429.75
2023-01-20T19:44:03.247Z,97401.00
2023-01-20T19:46:48.929Z,97385.59
2023-01-20T19:49:34.398Z,97415.38
2023-01-20T19:52:19.622Z,97395.59
2023-01-20T19:55:05.747Z,97372.44
2023-01-20T19:57:51.539Z,97416.63
2023-01-20T20:00:37.501Z,97327.22
2023-01-20T20:03:23.187Z,97177.38
2023-01-20T20:06:31.207Z,97391.22
2023-01-20T20:09:19.092Z,97366.97
2023-01-20T20:12:06.572Z,97355.41
2023-01-20T20:14:52.941Z,97238.97
2023-01-20T20:17:38.210Z,97321.69
2023-01-20T20:20:23.646Z,97333.22
2023-01-20T20:23:10.459Z,97237.19
2023-01-20T20:25:56.441Z,97224.00
2023-01-20T20:28:42.115Z,97171.72
2023-01-20T20:31:31.058Z,97391.28
2023-01-20T20:34:19.048Z,97360.72
2023-01-20T20:37:04.796Z,97359.25
2023-01-20T20:39:50.477Z,97361.06
2023-01-20T20:42:35.745Z,97336.03
2023-01-20T20:45:21.191Z,97358.53
2023-01-20T20:48:06.877Z,97383.03
2023-01-20T20:50:53.494Z,97356.00
2023-01-20T20:53:40.077Z,97358.19
2023-01-20T20:56:28.228Z,97147.06
2023-01-20T20:59:13.699Z,97169.28
2023-01-20T21:01:59.878Z,97321.44
2023-01-20T21:04:45.599Z,97120.56
2023-01-20T21:07:31.496Z,97097.78
2023-01-20T21:10:17.596Z,97297.22
2023-01-20T21:13:06.984Z,97274.47
2023-01-20T21:16:09.492Z,97345.81
2023-01-20T21:18:59.441Z,97347.00
2023-01-20T21:21:45.075Z,97301.28
2023-01-20T21:24:30.507Z,97150.81
2023-01-20T21:27:15.946Z,97354.66
2023-01-20T21:30:01.397Z,97203.56
2023-01-20T21:32:47.047Z,97347.00
2023-01-20T21:35:36.537Z,97336.16
2023-01-20T21:38:22.163Z,97293.34
2023-01-20T21:41:10.048Z,97310.19
2023-01-20T21:44:14.244Z,97294.41
2023-01-20T21:47:01.938Z,97152.94
2023-01-20T21:50:06.351Z,97318.34
2023-01-20T21:52:51.732Z,97322.72
2023-01-20T21:55:37.330Z,97209.72
2023-01-20T21:58:22.734Z,97315.13
2023-01-20T22:01:08.207Z,97331.22
2023-01-20T22:03:53.418Z,97123.41
2023-01-20T22:06:38.714Z,97298.03
2023-01-20T22:09:24.175Z,97262.56
2023-01-20T22:12:09.940Z,97319.00
2023-01-20T22:14:55.663Z,97278.97
2023-01-20T22:17:41.454Z,97300.88
2023-01-20T22:20:29.446Z,97315.91
2023-01-20T22:23:14.916Z,97346.69
2023-01-20T22:26:01.306Z,97326.84
2023-01-20T22:28:46.926Z,97098.28
2023-01-20T22:31:34.119Z,97229.28
2023-01-20T22:34:20.577Z,97268.00
2023-01-20T22:37:05.962Z,97088.53
2023-01-20T22:39:51.505Z,97269.50
2023-01-20T22:42:36.936Z,97300.56
2023-01-20T22:45:22.408Z,97240.66
2023-01-20T22:48:07.777Z,97272.50
2023-01-20T22:50:54.614Z,97235.94
2023-01-20T22:53:40.977Z,97245.59
2023-01-20T22:56:29.475Z,97077.63
2023-01-20T22:59:14.957Z,97282.34
2023-01-20T23:02:00.336Z,97196.25
2023-01-20T23:04:45.781Z,97235.50
2023-01-20T23:07:31.162Z,97076.56
2023-01-20T23:10:36.674Z,97291.41
2023-01-20T23:13:22.029Z,97271.41
2023-01-20T23:16:11.350Z,97275.78
2023-01-20T23:18:57.042Z,97173.84
2023-01-20T23:21:42.259Z,97288.97
2023-01-20T23:24:27.984Z,97282.03
2023-01-20T23:27:13.437Z,97093.88
2023-01-20T23:29:58.818Z,97298.78
2023-01-20T23:32:44.853Z,97167.88
2023-01-20T23:35:30.428Z,97087.69
2023-01-20T23:38:15.866Z,97095.78
2023-01-20T23:41:02.412Z,97306.41
2023-01-20T23:43:47.585Z,97087.38
2023-01-20T23:46:33.259Z,97296.72
2023-01-20T23:49:20.031Z,97264.38
2023-01-20T23:52:07.123Z,97270.09
2023-01-20T23:54:53.150Z,97248.09
2023-01-20T23:57:38.444Z,97251.47
